createdAt,value
2023-03-17T00:01:55.938Z,368.83
2023-03-17T00:04:32.671Z,397.97
2023-03-17T00:07:00.017Z,362.00
2023-03-17T00:09:27.345Z,374.27
2023-03-17T00:11:54.642Z,366.67
2023-03-17T00:14:21.867Z,363.83
2023-03-17T00:16:50.477Z,382.97
2023-03-17T00:19:36.619Z,383.10
2023-03-17T00:22:06.772Z,375.80
2023-03-17T00:24:33.766Z,383.57
2023-03-17T00:27:01.239Z,365.27
2023-03-17T00:29:28.187Z,373.60
2023-03-17T00:31:57.410Z,375.30
2023-03-17T00:34:24.500Z,364.77
2023-03-17T00:36:52.349Z,383.57
2023-03-17T00:39:19.960Z,377.57
2023-03-17T00:41:49.851Z,365.20
2023-03-17T00:44:17.543Z,365.43
2023-03-17T00:46:44.791Z,372.43
2023-03-17T00:49:22.132Z,378.67
2023-03-17T00:51:50.177Z,364.73
2023-03-17T00:54:19.447Z,368.53
2023-03-17T00:56:48.188Z,368.30
2023-03-17T00:59:20.611Z,367.90
2023-03-17T01:01:48.268Z,367.93
2023-03-17T01:04:15.804Z,366.70
2023-03-17T01:06:43.348Z,361.93
2023-03-17T01:09:17.111Z,359.73
2023-03-17T01:11:44.424Z,365.30
2023-03-17T01:14:16.007Z,361.80
2023-03-17T01:16:43.273Z,357.87
2023-03-17T01:19:13.398Z,368.40
2023-03-17T01:21:41.643Z,370.27
2023-03-17T01:24:09.622Z,367.40
2023-03-17T01:26:36.953Z,363.10
2023-03-17T01:29:04.934Z,381.67
2023-03-17T01:31:32.075Z,362.77
2023-03-17T01:33:59.085Z,364.77
2023-03-17T01:36:26.468Z,389.53
2023-03-17T01:38:53.816Z,372.87
2023-03-17T01:41:21.221Z,377.87
2023-03-17T01:43:48.488Z,364.97
2023-03-17T01:46:35.368Z,354.50
2023-03-17T01:49:31.570Z,379.43
2023-03-17T01:52:09.126Z,370.30
2023-03-17T01:54:50.540Z,375.80
2023-03-17T01:57:53.431Z,363.57
2023-03-17T02:00:24.278Z,365.87
2023-03-17T02:02:55.548Z,366.57
2023-03-17T02:05:29.884Z,367.90
2023-03-17T02:07:57.426Z,378.87
2023-03-17T02:10:28.865Z,369.93
2023-03-17T02:12:59.987Z,421.37
2023-03-17T02:15:37.950Z,422.23
2023-03-17T02:18:05.282Z,367.70
2023-03-17T02:20:32.782Z,366.33
2023-03-17T02:23:00.893Z,356.13
2023-03-17T02:25:30.806Z,362.23
2023-03-17T02:28:04.033Z,374.93
2023-03-17T02:30:33.148Z,370.67
2023-03-17T02:33:00.202Z,358.90
2023-03-17T02:35:27.483Z,373.60
2023-03-17T02:37:54.520Z,372.40
2023-03-17T02:40:22.136Z,369.87
2023-03-17T02:42:49.524Z,371.07
2023-03-17T02:45:17.163Z,360.33
2023-03-17T02:47:44.512Z,364.07
2023-03-17T02:50:23.328Z,363.07
2023-03-17T02:52:51.274Z,367.63
2023-03-17T02:55:18.851Z,351.63
2023-03-17T02:57:46.266Z,375.57
2023-03-17T03:00:14.404Z,362.17
2023-03-17T03:02:42.235Z,369.60
2023-03-17T03:05:10.753Z,355.10
2023-03-17T03:07:37.797Z,362.23
2023-03-17T03:10:05.846Z,365.00
2023-03-17T03:12:33.626Z,367.10
2023-03-17T03:15:00.844Z,352.50
2023-03-17T03:17:27.803Z,365.40
2023-03-17T03:19:55.453Z,362.87
2023-03-17T03:22:22.495Z,363.53
2023-03-17T03:24:49.562Z,367.70
2023-03-17T03:27:17.018Z,359.53
2023-03-17T03:29:44.072Z,363.80
2023-03-17T03:32:11.619Z,357.03
2023-03-17T03:34:38.648Z,364.00
2023-03-17T03:37:06.036Z,370.77
2023-03-17T03:39:33.115Z,363.97
2023-03-17T03:42:00.734Z,360.60
2023-03-17T03:44:27.671Z,371.87
2023-03-17T03:46:57.987Z,358.67
2023-03-17T03:49:25.029Z,362.43
2023-03-17T03:51:52.075Z,360.53
2023-03-17T03:54:19.033Z,362.27
2023-03-17T03:56:45.955Z,362.87
2023-03-17T03:59:12.928Z,361.33
2023-03-17T04:01:40.226Z,352.03
2023-03-17T04:04:07.575Z,363.97
2023-03-17T04:06:34.564Z,361.63
2023-03-17T04:09:02.431Z,359.53
2023-03-17T04:11:29.482Z,360.17
2023-03-17T04:13:56.571Z,354.60
2023-03-17T04:16:23.971Z,376.17
2023-03-17T04:18:51.312Z,361.30
2023-03-17T04:21:19.076Z,365.60
2023-03-17T04:23:46.625Z,368.30
2023-03-17T04:26:13.825Z,354.60
2023-03-17T04:28:40.966Z,348.13
2023-03-17T04:31:12.441Z,356.50
2023-03-17T04:33:40.321Z,363.30
2023-03-17T04:36:08.666Z,353.30
2023-03-17T04:38:35.675Z,360.33
2023-03-17T04:41:03.121Z,353.83
2023-03-17T04:43:30.375Z,364.30
2023-03-17T04:45:57.449Z,355.63
2023-03-17T04:48:24.414Z,351.93
2023-03-17T04:50:51.769Z,356.70
2023-03-17T04:53:19.059Z,358.83
2023-03-17T04:55:46.004Z,356.13
2023-03-17T04:58:21.113Z,354.77
2023-03-17T05:00:55.088Z,355.37
2023-03-17T05:03:27.203Z,362.27
2023-03-17T05:05:55.576Z,356.77
2023-03-17T05:08:22.674Z,359.10
2023-03-17T05:10:51.134Z,360.10
2023-03-17T05:13:19.190Z,357.53
2023-03-17T05:15:51.629Z,360.07
2023-03-17T05:18:20.447Z,356.73
2023-03-17T05:20:47.439Z,351.63
2023-03-17T05:23:15.180Z,346.30
2023-03-17T05:25:42.279Z,348.70
2023-03-17T05:28:10.209Z,351.17
2023-03-17T05:30:37.967Z,354.03
2023-03-17T05:33:06.103Z,336.00
2023-03-17T05:35:33.423Z,355.07
2023-03-17T05:38:00.780Z,349.17
2023-03-17T05:40:28.233Z,352.13
2023-03-17T05:42:55.541Z,358.23
2023-03-17T05:45:23.072Z,375.30
2023-03-17T05:47:50.479Z,376.50
2023-03-17T05:50:17.952Z,370.17
2023-03-17T05:52:45.226Z,362.97
2023-03-17T05:55:12.624Z,356.73
2023-03-17T05:57:39.998Z,346.90
2023-03-17T06:00:08.442Z,352.73
2023-03-17T06:02:35.881Z,358.23
2023-03-17T06:05:03.736Z,350.47
2023-03-17T06:07:41.314Z,352.80
2023-03-17T06:10:16.259Z,343.83
2023-03-17T06:12:43.549Z,363.27
2023-03-17T06:15:11.055Z,335.60
2023-03-17T06:17:39.160Z,339.47
2023-03-17T06:20:06.762Z,361.40
2023-03-17T06:22:33.760Z,347.23
2023-03-17T06:25:01.997Z,342.60
2023-03-17T06:27:28.987Z,342.43
2023-03-17T06:29:57.561Z,361.73
2023-03-17T06:32:25.060Z,347.37
2023-03-17T06:34:53.820Z,366.87
2023-03-17T06:37:21.545Z,360.57
2023-03-17T06:39:48.603Z,350.17
2023-03-17T06:42:17.283Z,347.20
2023-03-17T06:44:45.411Z,356.27
2023-03-17T06:47:13.568Z,361.37
2023-03-17T06:49:41.109Z,342.67
2023-03-17T06:52:08.885Z,348.30
2023-03-17T06:54:36.704Z,359.07
2023-03-17T06:57:04.171Z,355.47
2023-03-17T06:59:31.591Z,370.40
2023-03-17T07:01:59.465Z,342.60
2023-03-17T07:04:27.330Z,355.70
2023-03-17T07:06:54.763Z,363.97
2023-03-17T07:09:22.432Z,362.93
2023-03-17T07:11:49.970Z,365.73
2023-03-17T07:14:17.380Z,361.27
2023-03-17T07:16:45.256Z,355.43
2023-03-17T07:19:13.060Z,448.50
2023-03-17T07:21:41.043Z,358.13
2023-03-17T07:24:08.631Z,372.97
2023-03-17T07:26:36.132Z,359.23
2023-03-17T07:29:03.701Z,353.97
2023-03-17T07:31:31.197Z,363.80
2023-03-17T07:33:58.616Z,361.43
2023-03-17T07:36:26.294Z,366.43
2023-03-17T07:38:53.602Z,358.70
2023-03-17T07:41:22.321Z,377.83
2023-03-17T07:43:49.989Z,367.07
2023-03-17T07:46:17.581Z,362.87
2023-03-17T07:48:45.055Z,359.63
2023-03-17T07:51:19.312Z,363.30
2023-03-17T07:53:47.127Z,365.00
2023-03-17T07:56:14.496Z,360.60
2023-03-17T07:58:42.019Z,373.47
2023-03-17T08:01:09.897Z,374.20
2023-03-17T08:03:39.878Z,367.40
2023-03-17T08:06:08.746Z,392.37
2023-03-17T08:08:37.032Z,379.90
2023-03-17T08:11:06.101Z,356.40
2023-03-17T08:13:34.103Z,355.87
2023-03-17T08:16:21.595Z,365.53
2023-03-17T08:18:48.661Z,364.43
2023-03-17T08:21:16.931Z,372.37
2023-03-17T08:23:44.500Z,361.90
2023-03-17T08:26:14.369Z,362.20
2023-03-17T08:28:41.834Z,370.03
2023-03-17T08:31:13.556Z,368.13
2023-03-17T08:33:42.590Z,403.07
2023-03-17T08:36:11.480Z,370.77
2023-03-17T08:38:40.173Z,377.37
2023-03-17T08:41:12.486Z,372.23
2023-03-17T08:43:40.699Z,370.37
2023-03-17T08:46:22.475Z,371.07
2023-03-17T08:48:52.531Z,385.90
2023-03-17T08:51:24.570Z,384.10
2023-03-17T08:53:52.990Z,395.27
2023-03-17T08:56:20.687Z,395.87
2023-03-17T08:58:48.960Z,376.27
2023-03-17T09:01:17.101Z,385.00
2023-03-17T09:03:45.299Z,395.13
2023-03-17T09:06:13.635Z,373.58
2023-03-17T09:08:45.152Z,382.17
2023-03-17T09:11:16.775Z,384.60
2023-03-17T09:13:44.960Z,398.77
2023-03-17T09:16:16.360Z,392.27
2023-03-17T09:18:44.365Z,391.00
2023-03-17T09:21:14.130Z,392.15
2023-03-17T09:23:41.696Z,390.55
2023-03-17T09:26:09.123Z,391.08
2023-03-17T09:28:37.365Z,391.77
2023-03-17T09:31:11.616Z,395.80
2023-03-17T09:33:42.359Z,388.80
2023-03-17T09:36:10.775Z,399.17
2023-03-17T09:38:38.571Z,391.63
2023-03-17T09:41:20.754Z,396.30
2023-03-17T09:44:32.285Z,401.20
2023-03-17T09:47:28.473Z,397.98
2023-03-17T09:50:03.508Z,399.33
2023-03-17T09:52:37.490Z,415.35
2023-03-17T09:55:08.648Z,411.08
2023-03-17T09:57:38.467Z,401.45
2023-03-17T10:00:23.208Z,417.67
2023-03-17T10:02:50.531Z,410.95
2023-03-17T10:05:21.739Z,404.35
2023-03-17T10:08:30.706Z,419.27
2023-03-17T10:11:25.620Z,416.08
2023-03-17T10:14:23.833Z,423.17
2023-03-17T10:17:16.528Z,419.70
2023-03-17T10:19:59.854Z,441.98
2023-03-17T10:22:59.049Z,444.52
2023-03-17T10:25:37.578Z,432.90
2023-03-17T10:28:21.956Z,446.13
2023-03-17T10:30:49.491Z,427.45
2023-03-17T10:33:16.925Z,424.65
2023-03-17T10:35:45.072Z,430.67
2023-03-17T10:38:22.685Z,437.80
2023-03-17T10:41:09.965Z,420.20
2023-03-17T10:43:50.772Z,423.35
2023-03-17T10:46:25.750Z,419.42
2023-03-17T10:48:58.340Z,433.30
2023-03-17T10:51:33.552Z,459.98
2023-03-17T10:54:08.177Z,448.00
2023-03-17T10:56:38.143Z,439.30
2023-03-17T10:59:25.338Z,436.55
2023-03-17T11:02:00.845Z,435.85
2023-03-17T11:04:34.349Z,470.23
2023-03-17T11:07:17.577Z,437.13
2023-03-17T11:09:49.196Z,440.02
2023-03-17T11:12:29.952Z,435.92
2023-03-17T11:15:07.421Z,452.15
2023-03-17T11:17:59.027Z,480.52
2023-03-17T11:20:47.039Z,455.70
2023-03-17T11:23:47.469Z,473.30
2023-03-17T11:26:38.288Z,445.73
2023-03-17T11:29:23.824Z,474.67
2023-03-17T11:32:01.817Z,453.55
2023-03-17T11:34:52.607Z,496.85
2023-03-17T11:37:28.096Z,479.95
2023-03-17T11:40:43.809Z,492.05
2023-03-17T11:43:45.442Z,491.10
2023-03-17T11:46:28.313Z,497.85
2023-03-17T11:49:16.769Z,520.42
2023-03-17T11:52:14.504Z,504.77
2023-03-17T11:55:00.316Z,522.17
2023-03-17T11:58:02.461Z,535.42
2023-03-17T12:00:42.077Z,551.17
2023-03-17T12:03:43.672Z,564.60
2023-03-17T12:06:20.968Z,560.70
2023-03-17T12:09:01.040Z,574.15
2023-03-17T12:11:37.420Z,580.13
2023-03-17T12:14:33.865Z,580.05
2023-03-17T12:17:05.378Z,561.47
2023-03-17T12:19:58.394Z,580.50
2023-03-17T12:22:35.027Z,593.10
2023-03-17T12:25:10.284Z,559.60
2023-03-17T12:27:48.223Z,587.47
2023-03-17T12:30:33.387Z,586.80
2023-03-17T12:33:36.971Z,570.40
2023-03-17T12:36:06.920Z,559.67
2023-03-17T12:39:05.679Z,564.28
2023-03-17T12:42:10.054Z,547.20
2023-03-17T12:44:53.308Z,549.97
2023-03-17T12:47:57.288Z,554.97
2023-03-17T12:50:26.037Z,571.97
2023-03-17T12:53:31.663Z,550.70
2023-03-17T12:56:27.479Z,546.42
2023-03-17T12:59:24.215Z,562.42
2023-03-17T13:02:16.365Z,555.45
2023-03-17T13:05:00.866Z,568.22
2023-03-17T13:07:51.657Z,568.22
2023-03-17T13:10:42.003Z,559.35
2023-03-17T13:13:30.363Z,572.08
2023-03-17T13:16:00.688Z,586.80
2023-03-17T13:18:36.734Z,591.72
2023-03-17T13:21:04.225Z,602.97
2023-03-17T13:23:59.441Z,613.38
2023-03-17T13:26:53.674Z,601.95
2023-03-17T13:29:39.495Z,610.83
2023-03-17T13:32:27.406Z,598.92
2023-03-17T13:35:01.796Z,594.65
2023-03-17T13:38:03.466Z,589.35
2023-03-17T13:40:40.654Z,610.88
2023-03-17T13:43:43.486Z,581.13
2023-03-17T13:46:30.446Z,590.47
2023-03-17T13:49:04.191Z,613.75
2023-03-17T13:51:34.692Z,620.35
2023-03-17T13:54:30.443Z,597.88
2023-03-17T13:57:24.173Z,595.17
2023-03-17T14:00:17.721Z,620.20
2023-03-17T14:02:46.238Z,623.80
2023-03-17T14:05:38.152Z,622.17
2023-03-17T14:08:18.471Z,613.03
2023-03-17T14:11:00.652Z,666.15
2023-03-17T14:14:31.239Z,661.88
2023-03-17T14:17:29.332Z,623.13
2023-03-17T14:20:18.580Z,607.55
2023-03-17T14:26:37.586Z,604.53
2023-03-17T14:29:05.639Z,623.03
2023-03-17T14:31:33.053Z,617.80
2023-03-17T14:34:01.719Z,647.05
2023-03-17T14:36:33.670Z,621.90
2023-03-17T14:39:01.031Z,623.20
2023-03-17T14:41:29.337Z,643.08
2023-03-17T14:44:00.978Z,644.40
2023-03-17T14:46:33.971Z,621.63
2023-03-17T14:49:17.020Z,623.60
2023-03-17T14:51:44.918Z,614.70
2023-03-17T14:54:22.578Z,618.10
2023-03-17T14:57:02.228Z,592.58
2023-03-17T14:59:38.594Z,594.67
2023-03-17T15:02:24.044Z,617.83
2023-03-17T15:05:19.860Z,585.47
2023-03-17T15:07:47.231Z,589.17
2023-03-17T15:10:29.620Z,595.90
2023-03-17T15:13:06.388Z,604.22
2023-03-17T15:15:38.307Z,599.65
2023-03-17T15:18:12.010Z,603.33
2023-03-17T15:20:39.685Z,582.20
2023-03-17T15:23:18.243Z,602.78
2023-03-17T15:25:55.856Z,585.95
2023-03-17T15:28:27.734Z,592.97
2023-03-17T15:31:05.938Z,575.58
2023-03-17T15:33:39.698Z,576.10
2023-03-17T15:36:07.782Z,571.97
2023-03-17T15:38:38.912Z,573.53
2023-03-17T15:41:06.348Z,602.08
2023-03-17T15:43:34.819Z,587.90
2023-03-17T15:46:10.555Z,590.42
2023-03-17T15:48:38.044Z,599.30
2023-03-17T15:51:06.421Z,597.92
2023-03-17T15:53:33.801Z,596.85
2023-03-17T15:56:01.378Z,601.40
2023-03-17T15:58:28.755Z,598.08
2023-03-17T16:00:57.940Z,579.47
2023-03-17T16:03:32.916Z,568.47
2023-03-17T16:06:02.684Z,592.28
2023-03-17T16:08:30.243Z,597.00
2023-03-17T16:10:57.610Z,596.53
2023-03-17T16:13:24.988Z,597.15
2023-03-17T16:16:00.403Z,602.65
2023-03-17T16:18:37.701Z,595.47
2023-03-17T16:21:05.691Z,579.45
2023-03-17T16:23:37.026Z,572.45
2023-03-17T16:26:14.841Z,575.50
2023-03-17T16:28:45.163Z,594.22
2023-03-17T16:31:22.613Z,571.70
2023-03-17T16:33:50.807Z,549.13
2023-03-17T16:36:20.091Z,579.25
2023-03-17T16:38:47.944Z,548.55
2023-03-17T16:41:27.639Z,547.25
2023-03-17T16:44:02.543Z,545.80
2023-03-17T16:46:35.085Z,543.00
2023-03-17T16:49:04.322Z,532.13
2023-03-17T16:51:31.743Z,524.53
2023-03-17T16:53:58.719Z,513.05
2023-03-17T16:56:27.008Z,528.92
2023-03-17T16:58:54.408Z,518.13
2023-03-17T17:01:25.501Z,564.28
2023-03-17T17:03:53.415Z,514.05
2023-03-17T17:06:22.859Z,530.00
2023-03-17T17:08:51.180Z,521.80
2023-03-17T17:11:19.722Z,512.83
2023-03-17T17:13:48.892Z,525.95
2023-03-17T17:16:30.762Z,511.27
2023-03-17T17:18:59.659Z,494.42
2023-03-17T17:21:27.646Z,465.17
2023-03-17T17:23:55.528Z,489.80
2023-03-17T17:26:23.110Z,490.15
2023-03-17T17:28:50.564Z,503.98
2023-03-17T17:31:18.041Z,500.33
2023-03-17T17:33:45.616Z,484.73
2023-03-17T17:36:16.641Z,505.75
2023-03-17T17:38:44.261Z,484.38
2023-03-17T17:41:12.963Z,484.52
2023-03-17T17:43:40.802Z,458.23
2023-03-17T17:46:21.545Z,456.85
2023-03-17T17:48:49.438Z,451.67
2023-03-17T17:51:17.027Z,452.80
2023-03-17T17:53:44.814Z,452.67
2023-03-17T17:56:16.095Z,463.83
2023-03-17T17:58:45.368Z,435.73
2023-03-17T18:01:14.239Z,441.90
2023-03-17T18:03:42.974Z,428.63
2023-03-17T18:06:12.907Z,455.40
2023-03-17T18:08:40.589Z,444.60
2023-03-17T18:11:08.790Z,449.90
2023-03-17T18:13:38.999Z,444.20
2023-03-17T18:16:10.053Z,456.17
2023-03-17T18:18:40.688Z,426.30
2023-03-17T18:21:08.242Z,433.95
2023-03-17T18:23:36.523Z,425.48
2023-03-17T18:26:06.188Z,433.05
2023-03-17T18:28:34.167Z,426.00
2023-03-17T18:31:10.649Z,433.27
2023-03-17T18:33:39.146Z,426.92
2023-03-17T18:36:07.135Z,415.10
2023-03-17T18:38:35.746Z,423.67
2023-03-17T18:41:04.212Z,424.80
2023-03-17T18:43:31.429Z,438.23
2023-03-17T18:45:58.886Z,422.80
2023-03-17T18:48:26.347Z,416.70
2023-03-17T18:50:53.996Z,430.95
2023-03-17T18:53:22.383Z,424.95
2023-03-17T18:55:49.777Z,417.13
2023-03-17T18:58:17.203Z,428.23
2023-03-17T19:00:44.636Z,414.00
2023-03-17T19:03:12.087Z,420.40
2023-03-17T19:05:39.702Z,418.88
2023-03-17T19:08:07.046Z,430.67
2023-03-17T19:10:34.609Z,413.75
2023-03-17T19:13:02.018Z,423.85
2023-03-17T19:15:30.024Z,418.23
2023-03-17T19:17:57.478Z,423.50
2023-03-17T19:20:24.963Z,417.98
2023-03-17T19:22:53.445Z,413.90
2023-03-17T19:25:21.338Z,421.02
2023-03-17T19:27:48.310Z,425.20
2023-03-17T19:30:16.210Z,413.10
2023-03-17T19:32:43.447Z,406.45
2023-03-17T19:35:11.729Z,425.67
2023-03-17T19:37:39.102Z,427.13
2023-03-17T19:40:10.304Z,408.77
2023-03-17T19:42:37.282Z,415.15
2023-03-17T19:45:06.152Z,457.02
2023-03-17T19:47:33.086Z,407.73
2023-03-17T19:50:00.186Z,407.83
2023-03-17T19:52:27.137Z,413.92
2023-03-17T19:54:54.199Z,409.63
2023-03-17T19:57:21.236Z,410.45
2023-03-17T19:59:48.232Z,399.92
2023-03-17T20:02:16.793Z,410.25
2023-03-17T20:04:44.649Z,398.98
2023-03-17T20:07:11.893Z,409.17
2023-03-17T20:09:39.434Z,404.90
2023-03-17T20:12:08.097Z,402.02
2023-03-17T20:14:35.174Z,410.65
2023-03-17T20:17:02.309Z,412.02
2023-03-17T20:19:29.340Z,428.05
2023-03-17T20:21:58.550Z,415.33
2023-03-17T20:24:27.109Z,416.60
2023-03-17T20:26:57.000Z,421.75
2023-03-17T20:29:24.465Z,416.17
2023-03-17T20:31:51.804Z,401.15
2023-03-17T20:34:18.893Z,407.27
2023-03-17T20:36:46.126Z,398.45
2023-03-17T20:39:19.662Z,407.30
2023-03-17T20:41:51.703Z,406.92
2023-03-17T20:44:19.411Z,415.48
2023-03-17T20:46:47.674Z,405.35
2023-03-17T20:49:17.808Z,404.98
2023-03-17T20:51:46.350Z,408.77
2023-03-17T20:54:13.829Z,411.58
2023-03-17T20:56:41.212Z,406.58
2023-03-17T20:59:09.797Z,416.58
2023-03-17T21:01:38.764Z,425.73
2023-03-17T21:04:09.308Z,404.08
2023-03-17T21:06:37.554Z,414.65
2023-03-17T21:09:05.524Z,411.60
2023-03-17T21:11:32.567Z,411.10
2023-03-17T21:13:59.688Z,409.92
2023-03-17T21:16:29.862Z,415.00
2023-03-17T21:18:57.786Z,408.33
2023-03-17T21:21:25.167Z,413.75
2023-03-17T21:23:52.252Z,407.48
2023-03-17T21:26:19.629Z,415.92
2023-03-17T21:28:47.622Z,416.02
2023-03-17T21:31:16.037Z,422.35
2023-03-17T21:33:43.449Z,415.30
2023-03-17T21:36:11.241Z,412.95
2023-03-17T21:38:39.005Z,422.10
2023-03-17T21:41:29.236Z,442.30
2023-03-17T21:44:00.932Z,429.10
2023-03-17T21:46:28.214Z,428.17
2023-03-17T21:48:56.115Z,419.88
2023-03-17T21:51:23.614Z,408.30
2023-03-17T21:53:50.914Z,413.45
2023-03-17T21:56:18.759Z,413.08
2023-03-17T21:58:45.822Z,413.08
2023-03-17T22:01:12.900Z,417.15
2023-03-17T22:03:40.103Z,410.23
2023-03-17T22:06:08.298Z,416.63
2023-03-17T22:08:35.747Z,411.13
2023-03-17T22:11:09.120Z,423.15
2023-03-17T22:13:37.391Z,408.73
2023-03-17T22:16:05.183Z,409.08
2023-03-17T22:18:32.802Z,415.73
2023-03-17T22:21:00.703Z,406.50
2023-03-17T22:23:29.079Z,409.08
2023-03-17T22:25:57.411Z,408.17
2023-03-17T22:28:25.571Z,411.83
2023-03-17T22:30:52.614Z,403.70
2023-03-17T22:33:19.566Z,413.13
2023-03-17T22:35:47.018Z,405.98
2023-03-17T22:38:14.102Z,406.40
2023-03-17T22:40:41.506Z,410.15
2023-03-17T22:43:08.585Z,411.38
2023-03-17T22:45:35.645Z,407.83
2023-03-17T22:48:02.636Z,404.58
2023-03-17T22:50:29.887Z,409.23
2023-03-17T22:52:57.099Z,408.13
2023-03-17T22:55:24.102Z,413.88
2023-03-17T22:57:51.589Z,420.05
2023-03-17T23:00:19.749Z,413.25
2023-03-17T23:02:46.781Z,405.23
2023-03-17T23:05:14.638Z,409.75
2023-03-17T23:07:50.305Z,411.83
2023-03-17T23:10:23.171Z,415.23
2023-03-17T23:12:51.457Z,414.40
2023-03-17T23:15:19.948Z,419.70
2023-03-17T23:17:47.601Z,418.50
2023-03-17T23:20:15.464Z,407.55
2023-03-17T23:22:43.086Z,398.92
2023-03-17T23:25:12.653Z,410.42
2023-03-17T23:27:40.751Z,406.15
2023-03-17T23:30:11.281Z,411.73
2023-03-17T23:32:40.784Z,407.00
2023-03-17T23:35:09.475Z,413.80
2023-03-17T23:37:37.328Z,404.10
2023-03-17T23:40:09.670Z,402.35
2023-03-17T23:42:37.066Z,408.80
2023-03-17T23:45:04.862Z,404.83
2023-03-17T23:47:31.977Z,416.52
2023-03-17T23:49:59.022Z,409.23
2023-03-17T23:52:26.332Z,412.25
2023-03-17T23:54:53.517Z,415.85
2023-03-17T23:57:20.944Z,405.65
2023-03-17T23:59:47.958Z,411.80
